sensor_id;sensor_type;location;lat;lon;timestamp;P1;durP1;ratioP1;P2;durP2;ratioP2
39486;SDS011;25173;50.430;18.926;2023-02-12T00:02:28;13.32;;;11.07;;
39486;SDS011;25173;50.430;18.926;2023-02-12T00:05:29;16.65;;;11.32;;
39486;SDS011;25173;50.430;18.926;2023-02-12T00:08:30;14.48;;;9.98;;
39486;SDS011;25173;50.430;18.926;2023-02-12T00:11:30;13.98;;;10.75;;
39486;SDS011;25173;50.430;18.926;2023-02-12T00:14:31;15.50;;;11.23;;
39486;SDS011;25173;50.430;18.926;2023-02-12T00:17:32;15.98;;;10.70;;
39486;SDS011;25173;50.430;18.926;2023-02-12T00:20:32;15.95;;;10.10;;
39486;SDS011;25173;50.430;18.926;2023-02-12T00:23:33;13.00;;;9.38;;
39486;SDS011;25173;50.430;18.926;2023-02-12T00:26:35;13.30;;;9.32;;
39486;SDS011;25173;50.430;18.926;2023-02-12T00:29:36;12.07;;;8.63;;
39486;SDS011;25173;50.430;18.926;2023-02-12T00:32:38;12.45;;;9.23;;
39486;SDS011;25173;50.430;18.926;2023-02-12T00:35:40;15.82;;;10.25;;
39486;SDS011;25173;50.430;18.926;2023-02-12T00:38:41;16.23;;;12.35;;
39486;SDS011;25173;50.430;18.926;2023-02-12T00:41:43;63.00;;;36.13;;
39486;SDS011;25173;50.430;18.926;2023-02-12T00:44:44;64.30;;;32.60;;
39486;SDS011;25173;50.430;18.926;2023-02-12T00:47:44;72.75;;;36.25;;
39486;SDS011;25173;50.430;18.926;2023-02-12T00:50:45;46.60;;;25.85;;
39486;SDS011;25173;50.430;18.926;2023-02-12T00:53:47;34.35;;;18.60;;
39486;SDS011;25173;50.430;18.926;2023-02-12T00:56:48;45.22;;;25.95;;
39486;SDS011;25173;50.430;18.926;2023-02-12T00:59:48;51.63;;;27.85;;
39486;SDS011;25173;50.430;18.926;2023-02-12T01:02:50;22.25;;;12.73;;
39486;SDS011;25173;50.430;18.926;2023-02-12T01:05:51;19.10;;;12.70;;
39486;SDS011;25173;50.430;18.926;2023-02-12T01:08:54;20.30;;;12.23;;
39486;SDS011;25173;50.430;18.926;2023-02-12T01:11:55;23.08;;;14.30;;
39486;SDS011;25173;50.430;18.926;2023-02-12T01:14:55;19.98;;;13.00;;
39486;SDS011;25173;50.430;18.926;2023-02-12T01:17:56;17.75;;;11.68;;
39486;SDS011;25173;50.430;18.926;2023-02-12T01:20:57;18.27;;;12.23;;
39486;SDS011;25173;50.430;18.926;2023-02-12T01:23:58;18.75;;;13.07;;
39486;SDS011;25173;50.430;18.926;2023-02-12T01:26:59;16.52;;;10.65;;
39486;SDS011;25173;50.430;18.926;2023-02-12T01:30:01;17.38;;;11.55;;
39486;SDS011;25173;50.430;18.926;2023-02-12T01:33:02;16.83;;;11.35;;
39486;SDS011;25173;50.430;18.926;2023-02-12T01:36:03;22.88;;;14.25;;
39486;SDS011;25173;50.430;18.926;2023-02-12T01:39:04;19.38;;;13.05;;
39486;SDS011;25173;50.430;18.926;2023-02-12T01:42:05;20.50;;;13.13;;
39486;SDS011;25173;50.430;18.926;2023-02-12T01:48:13;24.05;;;13.68;;
39486;SDS011;25173;50.430;18.926;2023-02-12T01:51:17;25.15;;;15.50;;
39486;SDS011;25173;50.430;18.926;2023-02-12T01:54:19;15.93;;;10.63;;
39486;SDS011;25173;50.430;18.926;2023-02-12T01:57:26;29.02;;;12.63;;
39486;SDS011;25173;50.430;18.926;2023-02-12T02:00:30;19.55;;;11.95;;
39486;SDS011;25173;50.430;18.926;2023-02-12T02:03:33;17.15;;;10.00;;
39486;SDS011;25173;50.430;18.926;2023-02-12T02:06:49;19.70;;;11.75;;
39486;SDS011;25173;50.430;18.926;2023-02-12T02:09:58;16.00;;;9.90;;
39486;SDS011;25173;50.430;18.926;2023-02-12T02:13:01;15.20;;;9.98;;
39486;SDS011;25173;50.430;18.926;2023-02-12T02:16:23;19.83;;;11.52;;
39486;SDS011;25173;50.430;18.926;2023-02-12T02:30:09;17.45;;;11.00;;
39486;SDS011;25173;50.430;18.926;2023-02-12T02:33:23;20.08;;;9.98;;
39486;SDS011;25173;50.430;18.926;2023-02-12T02:36:36;17.48;;;10.82;;
39486;SDS011;25173;50.430;18.926;2023-02-12T02:42:54;18.52;;;10.45;;
39486;SDS011;25173;50.430;18.926;2023-02-12T02:46:02;17.67;;;10.35;;
39486;SDS011;25173;50.430;18.926;2023-02-12T02:49:08;18.92;;;9.75;;
39486;SDS011;25173;50.430;18.926;2023-02-12T02:52:13;16.40;;;9.70;;
39486;SDS011;25173;50.430;18.926;2023-02-12T02:55:18;14.63;;;9.40;;
39486;SDS011;25173;50.430;18.926;2023-02-12T02:58:24;11.07;;;7.65;;
39486;SDS011;25173;50.430;18.926;2023-02-12T03:01:37;13.43;;;9.18;;
39486;SDS011;25173;50.430;18.926;2023-02-12T03:04:47;11.20;;;7.90;;
39486;SDS011;25173;50.430;18.926;2023-02-12T03:08:05;15.82;;;8.85;;
39486;SDS011;25173;50.430;18.926;2023-02-12T03:11:21;12.23;;;8.88;;
39486;SDS011;25173;50.430;18.926;2023-02-12T03:14:28;17.05;;;10.52;;
39486;SDS011;25173;50.430;18.926;2023-02-12T03:17:36;15.00;;;9.57;;
39486;SDS011;25173;50.430;18.926;2023-02-12T03:20:41;15.32;;;9.00;;
39486;SDS011;25173;50.430;18.926;2023-02-12T03:23:47;17.70;;;9.02;;
39486;SDS011;25173;50.430;18.926;2023-02-12T03:30:34;15.23;;;8.23;;
39486;SDS011;25173;50.430;18.926;2023-02-12T03:34:01;22.42;;;12.30;;
39486;SDS011;25173;50.430;18.926;2023-02-12T03:37:07;24.95;;;13.85;;
39486;SDS011;25173;50.430;18.926;2023-02-12T03:40:18;20.15;;;11.07;;
39486;SDS011;25173;50.430;18.926;2023-02-12T03:43:26;20.83;;;11.25;;
39486;SDS011;25173;50.430;18.926;2023-02-12T03:46:39;41.55;;;22.48;;
39486;SDS011;25173;50.430;18.926;2023-02-12T03:50:32;45.63;;;24.40;;
39486;SDS011;25173;50.430;18.926;2023-02-12T03:53:10;27.60;;;15.63;;
39486;SDS011;25173;50.430;18.926;2023-02-12T03:56:58;23.85;;;11.88;;
39486;SDS011;25173;50.430;18.926;2023-02-12T04:00:05;23.08;;;11.80;;
39486;SDS011;25173;50.430;18.926;2023-02-12T04:03:14;28.08;;;17.30;;
39486;SDS011;25173;50.430;18.926;2023-02-12T04:06:18;27.58;;;15.55;;
39486;SDS011;25173;50.430;18.926;2023-02-12T04:09:26;39.50;;;21.13;;
39486;SDS011;25173;50.430;18.926;2023-02-12T04:12:38;32.17;;;18.58;;
39486;SDS011;25173;50.430;18.926;2023-02-12T04:19:01;34.05;;;19.23;;
39486;SDS011;25173;50.430;18.926;2023-02-12T04:22:22;29.80;;;17.60;;
39486;SDS011;25173;50.430;18.926;2023-02-12T04:29:02;21.08;;;11.88;;
39486;SDS011;25173;50.430;18.926;2023-02-12T04:32:15;17.38;;;9.88;;
39486;SDS011;25173;50.430;18.926;2023-02-12T04:35:31;23.08;;;12.13;;
39486;SDS011;25173;50.430;18.926;2023-02-12T04:38:39;19.98;;;11.07;;
39486;SDS011;25173;50.430;18.926;2023-02-12T04:41:44;23.73;;;14.40;;
39486;SDS011;25173;50.430;18.926;2023-02-12T04:44:44;27.83;;;15.05;;
39486;SDS011;25173;50.430;18.926;2023-02-12T04:47:45;31.52;;;19.40;;
39486;SDS011;25173;50.430;18.926;2023-02-12T04:50:46;25.65;;;16.33;;
39486;SDS011;25173;50.430;18.926;2023-02-12T04:53:47;26.52;;;14.95;;
39486;SDS011;25173;50.430;18.926;2023-02-12T04:56:48;24.63;;;13.23;;
39486;SDS011;25173;50.430;18.926;2023-02-12T04:59:49;19.67;;;12.02;;
39486;SDS011;25173;50.430;18.926;2023-02-12T05:02:50;25.02;;;13.05;;
39486;SDS011;25173;50.430;18.926;2023-02-12T05:05:50;22.77;;;13.70;;
39486;SDS011;25173;50.430;18.926;2023-02-12T05:08:51;21.20;;;13.48;;
39486;SDS011;25173;50.430;18.926;2023-02-12T05:11:52;25.85;;;14.07;;
39486;SDS011;25173;50.430;18.926;2023-02-12T05:14:53;25.77;;;14.27;;
39486;SDS011;25173;50.430;18.926;2023-02-12T05:17:53;23.13;;;11.35;;
39486;SDS011;25173;50.430;18.926;2023-02-12T05:20:58;20.05;;;10.43;;
39486;SDS011;25173;50.430;18.926;2023-02-12T05:24:00;15.95;;;9.75;;
39486;SDS011;25173;50.430;18.926;2023-02-12T05:27:02;18.98;;;10.05;;
39486;SDS011;25173;50.430;18.926;2023-02-12T05:30:03;16.30;;;10.10;;
39486;SDS011;25173;50.430;18.926;2023-02-12T05:33:05;17.30;;;8.65;;
39486;SDS011;25173;50.430;18.926;2023-02-12T05:36:07;15.88;;;9.00;;
39486;SDS011;25173;50.430;18.926;2023-02-12T05:39:09;18.67;;;8.68;;
39486;SDS011;25173;50.430;18.926;2023-02-12T05:42:10;21.33;;;9.77;;
39486;SDS011;25173;50.430;18.926;2023-02-12T05:45:11;17.02;;;8.95;;
39486;SDS011;25173;50.430;18.926;2023-02-12T05:48:11;14.70;;;8.80;;
39486;SDS011;25173;50.430;18.926;2023-02-12T05:51:13;19.25;;;10.68;;
39486;SDS011;25173;50.430;18.926;2023-02-12T05:54:15;24.00;;;11.88;;
39486;SDS011;25173;50.430;18.926;2023-02-12T05:57:16;22.13;;;11.10;;
39486;SDS011;25173;50.430;18.926;2023-02-12T06:00:17;24.70;;;11.15;;
39486;SDS011;25173;50.430;18.926;2023-02-12T06:03:17;13.30;;;7.60;;
39486;SDS011;25173;50.430;18.926;2023-02-12T06:06:18;20.42;;;9.10;;
39486;SDS011;25173;50.430;18.926;2023-02-12T06:09:19;16.95;;;8.45;;
39486;SDS011;25173;50.430;18.926;2023-02-12T06:12:19;17.17;;;7.85;;
39486;SDS011;25173;50.430;18.926;2023-02-12T06:15:20;16.67;;;7.93;;
39486;SDS011;25173;50.430;18.926;2023-02-12T06:18:21;17.33;;;7.88;;
39486;SDS011;25173;50.430;18.926;2023-02-12T06:21:23;13.15;;;7.22;;
39486;SDS011;25173;50.430;18.926;2023-02-12T06:24:24;17.90;;;8.13;;
39486;SDS011;25173;50.430;18.926;2023-02-12T06:27:25;15.48;;;8.45;;
39486;SDS011;25173;50.430;18.926;2023-02-12T06:30:25;18.38;;;9.88;;
39486;SDS011;25173;50.430;18.926;2023-02-12T06:33:26;14.80;;;7.60;;
39486;SDS011;25173;50.430;18.926;2023-02-12T06:36:27;13.68;;;5.95;;
39486;SDS011;25173;50.430;18.926;2023-02-12T06:39:28;11.10;;;6.47;;
39486;SDS011;25173;50.430;18.926;2023-02-12T06:42:28;12.02;;;6.00;;
39486;SDS011;25173;50.430;18.926;2023-02-12T06:45:29;12.63;;;5.35;;
39486;SDS011;25173;50.430;18.926;2023-02-12T06:48:30;10.45;;;5.07;;
39486;SDS011;25173;50.430;18.926;2023-02-12T06:51:31;12.20;;;5.55;;
39486;SDS011;25173;50.430;18.926;2023-02-12T06:54:31;13.18;;;5.03;;
39486;SDS011;25173;50.430;18.926;2023-02-12T06:57:32;10.02;;;5.38;;
39486;SDS011;25173;50.430;18.926;2023-02-12T07:00:32;8.13;;;4.10;;
39486;SDS011;25173;50.430;18.926;2023-02-12T07:03:33;11.18;;;4.13;;
39486;SDS011;25173;50.430;18.926;2023-02-12T07:06:34;9.63;;;4.50;;
39486;SDS011;25173;50.430;18.926;2023-02-12T07:09:35;11.90;;;4.75;;
39486;SDS011;25173;50.430;18.926;2023-02-12T07:12:35;10.57;;;5.93;;
39486;SDS011;25173;50.430;18.926;2023-02-12T07:15:37;10.82;;;5.65;;
39486;SDS011;25173;50.430;18.926;2023-02-12T07:18:39;12.38;;;6.28;;
39486;SDS011;25173;50.430;18.926;2023-02-12T07:21:39;8.57;;;4.90;;
39486;SDS011;25173;50.430;18.926;2023-02-12T07:24:40;6.55;;;4.07;;
39486;SDS011;25173;50.430;18.926;2023-02-12T07:27:40;10.35;;;4.68;;
39486;SDS011;25173;50.430;18.926;2023-02-12T07:30:41;8.88;;;4.03;;
39486;SDS011;25173;50.430;18.926;2023-02-12T07:33:42;200.18;;;120.25;;
39486;SDS011;25173;50.430;18.926;2023-02-12T07:36:43;519.05;;;466.23;;
39486;SDS011;25173;50.430;18.926;2023-02-12T07:39:44;465.67;;;248.93;;
39486;SDS011;25173;50.430;18.926;2023-02-12T07:42:44;110.93;;;99.05;;
39486;SDS011;25173;50.430;18.926;2023-02-12T07:45:51;113.13;;;102.30;;
39486;SDS011;25173;50.430;18.926;2023-02-12T07:48:51;47.03;;;42.20;;
39486;SDS011;25173;50.430;18.926;2023-02-12T07:51:52;52.50;;;47.00;;
39486;SDS011;25173;50.430;18.926;2023-02-12T07:54:56;49.17;;;44.45;;
39486;SDS011;25173;50.430;18.926;2023-02-12T07:57:56;46.25;;;41.15;;
39486;SDS011;25173;50.430;18.926;2023-02-12T08:00:57;22.02;;;17.80;;
39486;SDS011;25173;50.430;18.926;2023-02-12T08:03:59;22.88;;;20.48;;
39486;SDS011;25173;50.430;18.926;2023-02-12T08:07:01;21.45;;;15.10;;
39486;SDS011;25173;50.430;18.926;2023-02-12T08:10:02;8.85;;;4.72;;
39486;SDS011;25173;50.430;18.926;2023-02-12T08:13:03;12.40;;;6.60;;
39486;SDS011;25173;50.430;18.926;2023-02-12T08:16:06;8.52;;;6.43;;
39486;SDS011;25173;50.430;18.926;2023-02-12T08:19:11;8.32;;;6.88;;
39486;SDS011;25173;50.430;18.926;2023-02-12T08:22:12;10.55;;;6.72;;
39486;SDS011;25173;50.430;18.926;2023-02-12T08:25:13;9.60;;;4.55;;
39486;SDS011;25173;50.430;18.926;2023-02-12T08:28:13;9.73;;;4.22;;
39486;SDS011;25173;50.430;18.926;2023-02-12T08:31:16;19.08;;;14.13;;
39486;SDS011;25173;50.430;18.926;2023-02-12T08:37:21;6.47;;;3.38;;
39486;SDS011;25173;50.430;18.926;2023-02-12T08:40:21;8.15;;;4.53;;
39486;SDS011;25173;50.430;18.926;2023-02-12T08:43:22;5.55;;;2.65;;
39486;SDS011;25173;50.430;18.926;2023-02-12T08:46:24;6.45;;;2.95;;
39486;SDS011;25173;50.430;18.926;2023-02-12T08:49:27;6.55;;;2.90;;
39486;SDS011;25173;50.430;18.926;2023-02-12T08:52:28;6.55;;;3.33;;
39486;SDS011;25173;50.430;18.926;2023-02-12T08:55:29;22.35;;;15.55;;
39486;SDS011;25173;50.430;18.926;2023-02-12T08:58:30;43.20;;;31.80;;
39486;SDS011;25173;50.430;18.926;2023-02-12T09:01:32;63.40;;;43.70;;
39486;SDS011;25173;50.430;18.926;2023-02-12T09:04:37;15.13;;;9.55;;
39486;SDS011;25173;50.430;18.926;2023-02-12T09:07:39;7.40;;;4.45;;
39486;SDS011;25173;50.430;18.926;2023-02-12T09:10:40;11.18;;;7.93;;
39486;SDS011;25173;50.430;18.926;2023-02-12T09:13:43;22.25;;;17.77;;
39486;SDS011;25173;50.430;18.926;2023-02-12T09:16:45;36.75;;;30.75;;
39486;SDS011;25173;50.430;18.926;2023-02-12T09:19:45;35.13;;;26.50;;
39486;SDS011;25173;50.430;18.926;2023-02-12T09:22:46;20.88;;;14.90;;
39486;SDS011;25173;50.430;18.926;2023-02-12T09:25:46;12.93;;;8.35;;
39486;SDS011;25173;50.430;18.926;2023-02-12T09:28:47;11.93;;;9.75;;
39486;SDS011;25173;50.430;18.926;2023-02-12T09:31:49;31.38;;;22.50;;
39486;SDS011;25173;50.430;18.926;2023-02-12T09:34:50;31.27;;;22.75;;
39486;SDS011;25173;50.430;18.926;2023-02-12T09:37:51;18.08;;;10.70;;
39486;SDS011;25173;50.430;18.926;2023-02-12T09:44:21;17.77;;;11.00;;
39486;SDS011;25173;50.430;18.926;2023-02-12T09:47:32;7.10;;;4.22;;
39486;SDS011;25173;50.430;18.926;2023-02-12T09:50:47;8.07;;;4.65;;
39486;SDS011;25173;50.430;18.926;2023-02-12T09:53:59;8.85;;;5.35;;
39486;SDS011;25173;50.430;18.926;2023-02-12T09:57:04;7.05;;;3.58;;
39486;SDS011;25173;50.430;18.926;2023-02-12T10:00:23;8.07;;;4.63;;
39486;SDS011;25173;50.430;18.926;2023-02-12T10:03:30;13.52;;;7.35;;
39486;SDS011;25173;50.430;18.926;2023-02-12T10:06:41;9.85;;;4.68;;
39486;SDS011;25173;50.430;18.926;2023-02-12T10:10:01;10.43;;;5.15;;
39486;SDS011;25173;50.430;18.926;2023-02-12T10:20:37;31.17;;;27.00;;
39486;SDS011;25173;50.430;18.926;2023-02-12T10:24:50;26.27;;;21.70;;
39486;SDS011;25173;50.430;18.926;2023-02-12T10:27:55;9.60;;;6.38;;
39486;SDS011;25173;50.430;18.926;2023-02-12T10:31:01;7.10;;;3.42;;
39486;SDS011;25173;50.430;18.926;2023-02-12T10:34:18;6.43;;;4.35;;
39486;SDS011;25173;50.430;18.926;2023-02-12T10:37:36;736.67;;;398.42;;
39486;SDS011;25173;50.430;18.926;2023-02-12T10:40:43;15.27;;;10.30;;
39486;SDS011;25173;50.430;18.926;2023-02-12T10:43:44;8.63;;;4.93;;
39486;SDS011;25173;50.430;18.926;2023-02-12T10:46:45;9.45;;;6.35;;
39486;SDS011;25173;50.430;18.926;2023-02-12T10:49:50;4.57;;;3.33;;
39486;SDS011;25173;50.430;18.926;2023-02-12T10:52:55;7.72;;;3.38;;
39486;SDS011;25173;50.430;18.926;2023-02-12T10:56:18;7.95;;;5.95;;
39486;SDS011;25173;50.430;18.926;2023-02-12T10:59:23;6.15;;;4.68;;
39486;SDS011;25173;50.430;18.926;2023-02-12T11:05:28;7.57;;;5.88;;
39486;SDS011;25173;50.430;18.926;2023-02-12T11:08:34;6.20;;;3.90;;
39486;SDS011;25173;50.430;18.926;2023-02-12T11:11:37;8.73;;;4.20;;
39486;SDS011;25173;50.430;18.926;2023-02-12T11:14:39;8.60;;;4.50;;
39486;SDS011;25173;50.430;18.926;2023-02-12T11:17:58;8.02;;;4.22;;
39486;SDS011;25173;50.430;18.926;2023-02-12T11:21:00;15.15;;;11.52;;
39486;SDS011;25173;50.430;18.926;2023-02-12T11:27:29;6.78;;;2.65;;
39486;SDS011;25173;50.430;18.926;2023-02-12T11:30:30;17.30;;;9.48;;
39486;SDS011;25173;50.430;18.926;2023-02-12T11:33:32;9.57;;;4.35;;
39486;SDS011;25173;50.430;18.926;2023-02-12T11:36:35;16.67;;;12.73;;
39486;SDS011;25173;50.430;18.926;2023-02-12T11:39:55;20.77;;;15.00;;
39486;SDS011;25173;50.430;18.926;2023-02-12T11:42:56;22.38;;;12.45;;
39486;SDS011;25173;50.430;18.926;2023-02-12T11:46:08;36.33;;;24.88;;
39486;SDS011;25173;50.430;18.926;2023-02-12T11:49:12;9.05;;;4.68;;
39486;SDS011;25173;50.430;18.926;2023-02-12T11:52:24;3.38;;;2.40;;
39486;SDS011;25173;50.430;18.926;2023-02-12T11:55:29;8.23;;;3.25;;
39486;SDS011;25173;50.430;18.926;2023-02-12T11:58:33;19.20;;;9.52;;
39486;SDS011;25173;50.430;18.926;2023-02-12T12:01:33;48.22;;;23.77;;
39486;SDS011;25173;50.430;18.926;2023-02-12T12:04:37;10.02;;;4.40;;
39486;SDS011;25173;50.430;18.926;2023-02-12T12:07:42;6.28;;;2.72;;
39486;SDS011;25173;50.430;18.926;2023-02-12T12:10:51;7.32;;;3.60;;
39486;SDS011;25173;50.430;18.926;2023-02-12T12:14:23;13.65;;;8.20;;
39486;SDS011;25173;50.430;18.926;2023-02-12T12:17:37;13.98;;;6.63;;
39486;SDS011;25173;50.430;18.926;2023-02-12T12:21:25;8.77;;;4.63;;
39486;SDS011;25173;50.430;18.926;2023-02-12T12:31:11;13.40;;;6.50;;
39486;SDS011;25173;50.430;18.926;2023-02-12T12:34:23;5.38;;;3.00;;
39486;SDS011;25173;50.430;18.926;2023-02-12T12:43:53;8.18;;;3.05;;
39486;SDS011;25173;50.430;18.926;2023-02-12T12:47:16;12.65;;;5.95;;
39486;SDS011;25173;50.430;18.926;2023-02-12T13:07:17;8.95;;;3.90;;
39486;SDS011;25173;50.430;18.926;2023-02-12T13:10:35;14.07;;;7.53;;
39486;SDS011;25173;50.430;18.926;2023-02-12T13:13:45;21.73;;;11.07;;
39486;SDS011;25173;50.430;18.926;2023-02-12T13:16:50;21.98;;;11.02;;
39486;SDS011;25173;50.430;18.926;2023-02-12T13:26:29;13.85;;;6.95;;
39486;SDS011;25173;50.430;18.926;2023-02-12T13:29:39;12.82;;;5.72;;
39486;SDS011;25173;50.430;18.926;2023-02-12T13:32:49;26.55;;;12.35;;
39486;SDS011;25173;50.430;18.926;2023-02-12T13:35:59;13.70;;;7.75;;
39486;SDS011;25173;50.430;18.926;2023-02-12T13:39:06;26.45;;;11.05;;
39486;SDS011;25173;50.430;18.926;2023-02-12T13:42:13;52.15;;;24.85;;
39486;SDS011;25173;50.430;18.926;2023-02-12T13:45:33;71.80;;;30.08;;
39486;SDS011;25173;50.430;18.926;2023-02-12T13:49:39;37.63;;;17.92;;
39486;SDS011;25173;50.430;18.926;2023-02-12T14:01:42;96.05;;;42.22;;
39486;SDS011;25173;50.430;18.926;2023-02-12T14:04:51;33.17;;;14.98;;
39486;SDS011;25173;50.430;18.926;2023-02-12T14:07:57;15.07;;;7.57;;
39486;SDS011;25173;50.430;18.926;2023-02-12T14:11:06;19.48;;;9.30;;
39486;SDS011;25173;50.430;18.926;2023-02-12T14:14:09;30.30;;;16.10;;
39486;SDS011;25173;50.430;18.926;2023-02-12T14:20:32;41.33;;;20.88;;
39486;SDS011;25173;50.430;18.926;2023-02-12T14:23:37;34.53;;;17.00;;
39486;SDS011;25173;50.430;18.926;2023-02-12T14:26:41;26.70;;;13.18;;
39486;SDS011;25173;50.430;18.926;2023-02-12T14:29:58;24.65;;;14.80;;
39486;SDS011;25173;50.430;18.926;2023-02-12T14:33:24;18.02;;;9.55;;
39486;SDS011;25173;50.430;18.926;2023-02-12T14:39:32;36.50;;;21.20;;
39486;SDS011;25173;50.430;18.926;2023-02-12T14:45:36;27.00;;;12.20;;
39486;SDS011;25173;50.430;18.926;2023-02-12T14:51:55;19.17;;;9.70;;
39486;SDS011;25173;50.430;18.926;2023-02-12T14:55:19;18.77;;;9.55;;
39486;SDS011;25173;50.430;18.926;2023-02-12T14:58:22;13.00;;;6.00;;
39486;SDS011;25173;50.430;18.926;2023-02-12T15:01:31;19.45;;;9.57;;
39486;SDS011;25173;50.430;18.926;2023-02-12T15:04:35;25.15;;;10.63;;
39486;SDS011;25173;50.430;18.926;2023-02-12T15:11:05;32.15;;;14.50;;
39486;SDS011;25173;50.430;18.926;2023-02-12T15:14:27;22.55;;;9.63;;
39486;SDS011;25173;50.430;18.926;2023-02-12T15:17:31;26.17;;;10.93;;
39486;SDS011;25173;50.430;18.926;2023-02-12T15:20:49;22.13;;;10.95;;
39486;SDS011;25173;50.430;18.926;2023-02-12T15:27:04;17.05;;;7.43;;
39486;SDS011;25173;50.430;18.926;2023-02-12T15:30:05;14.88;;;8.05;;
39486;SDS011;25173;50.430;18.926;2023-02-12T15:33:06;27.17;;;13.52;;
39486;SDS011;25173;50.430;18.926;2023-02-12T15:36:08;62.33;;;31.73;;
39486;SDS011;25173;50.430;18.926;2023-02-12T15:39:13;46.10;;;24.17;;
39486;SDS011;25173;50.430;18.926;2023-02-12T15:45:30;71.93;;;32.40;;
39486;SDS011;25173;50.430;18.926;2023-02-12T15:48:33;57.38;;;28.45;;
39486;SDS011;25173;50.430;18.926;2023-02-12T15:51:37;67.35;;;31.33;;
39486;SDS011;25173;50.430;18.926;2023-02-12T15:54:41;56.40;;;30.17;;
39486;SDS011;25173;50.430;18.926;2023-02-12T15:57:54;99.55;;;40.65;;
39486;SDS011;25173;50.430;18.926;2023-02-12T16:01:03;135.90;;;54.33;;
39486;SDS011;25173;50.430;18.926;2023-02-12T16:04:05;142.95;;;56.65;;
39486;SDS011;25173;50.430;18.926;2023-02-12T16:07:08;173.95;;;87.88;;
39486;SDS011;25173;50.430;18.926;2023-02-12T16:10:15;140.45;;;86.45;;
39486;SDS011;25173;50.430;18.926;2023-02-12T16:13:20;121.43;;;70.57;;
39486;SDS011;25173;50.430;18.926;2023-02-12T16:16:29;147.50;;;83.38;;
39486;SDS011;25173;50.430;18.926;2023-02-12T16:20:00;140.23;;;79.35;;
39486;SDS011;25173;50.430;18.926;2023-02-12T16:23:04;171.73;;;104.63;;
39486;SDS011;25173;50.430;18.926;2023-02-12T16:26:06;173.77;;;98.80;;
39486;SDS011;25173;50.430;18.926;2023-02-12T16:29:12;270.90;;;135.95;;
39486;SDS011;25173;50.430;18.926;2023-02-12T16:35:32;61.50;;;30.77;;
39486;SDS011;25173;50.430;18.926;2023-02-12T16:41:52;111.95;;;59.08;;
39486;SDS011;25173;50.430;18.926;2023-02-12T16:44:55;143.80;;;70.82;;
39486;SDS011;25173;50.430;18.926;2023-02-12T16:50:57;100.85;;;50.85;;
39486;SDS011;25173;50.430;18.926;2023-02-12T16:53:59;66.70;;;36.30;;
39486;SDS011;25173;50.430;18.926;2023-02-12T16:57:01;57.60;;;30.63;;
39486;SDS011;25173;50.430;18.926;2023-02-12T17:00:02;139.32;;;67.40;;
39486;SDS011;25173;50.430;18.926;2023-02-12T17:03:11;343.85;;;144.32;;
39486;SDS011;25173;50.430;18.926;2023-02-12T17:06:13;383.00;;;169.60;;
39486;SDS011;25173;50.430;18.926;2023-02-12T17:09:14;369.60;;;163.25;;
39486;SDS011;25173;50.430;18.926;2023-02-12T17:12:14;393.67;;;197.35;;
39486;SDS011;25173;50.430;18.926;2023-02-12T17:15:19;414.00;;;189.77;;
39486;SDS011;25173;50.430;18.926;2023-02-12T17:18:32;636.08;;;361.25;;
39486;SDS011;25173;50.430;18.926;2023-02-12T17:21:35;669.03;;;385.98;;
39486;SDS011;25173;50.430;18.926;2023-02-12T17:24:39;660.15;;;375.10;;
39486;SDS011;25173;50.430;18.926;2023-02-12T17:27:39;662.95;;;376.85;;
39486;SDS011;25173;50.430;18.926;2023-02-12T17:30:40;671.00;;;388.45;;
39486;SDS011;25173;50.430;18.926;2023-02-12T17:33:41;494.15;;;268.80;;
39486;SDS011;25173;50.430;18.926;2023-02-12T17:36:42;497.65;;;260.77;;
39486;SDS011;25173;50.430;18.926;2023-02-12T17:39:42;468.67;;;253.20;;
39486;SDS011;25173;50.430;18.926;2023-02-12T17:42:43;415.45;;;235.63;;
39486;SDS011;25173;50.430;18.926;2023-02-12T17:45:43;377.30;;;224.98;;
39486;SDS011;25173;50.430;18.926;2023-02-12T17:48:44;392.27;;;235.88;;
39486;SDS011;25173;50.430;18.926;2023-02-12T17:51:45;454.55;;;277.85;;
39486;SDS011;25173;50.430;18.926;2023-02-12T17:54:45;456.90;;;271.40;;
39486;SDS011;25173;50.430;18.926;2023-02-12T17:57:50;439.05;;;271.35;;
39486;SDS011;25173;50.430;18.926;2023-02-12T18:00:51;457.75;;;280.55;;
39486;SDS011;25173;50.430;18.926;2023-02-12T18:03:52;449.95;;;282.45;;
39486;SDS011;25173;50.430;18.926;2023-02-12T18:06:55;488.80;;;289.20;;
39486;SDS011;25173;50.430;18.926;2023-02-12T18:09:56;438.20;;;255.40;;
39486;SDS011;25173;50.430;18.926;2023-02-12T18:12:56;393.65;;;233.30;;
39486;SDS011;25173;50.430;18.926;2023-02-12T18:15:57;404.42;;;247.35;;
39486;SDS011;25173;50.430;18.926;2023-02-12T18:18:59;505.02;;;287.45;;
39486;SDS011;25173;50.430;18.926;2023-02-12T18:22:03;542.05;;;313.90;;
39486;SDS011;25173;50.430;18.926;2023-02-12T18:25:04;495.58;;;293.40;;
39486;SDS011;25173;50.430;18.926;2023-02-12T18:28:05;504.98;;;304.77;;
39486;SDS011;25173;50.430;18.926;2023-02-12T18:31:06;492.48;;;286.55;;
39486;SDS011;25173;50.430;18.926;2023-02-12T18:34:07;477.45;;;283.95;;
39486;SDS011;25173;50.430;18.926;2023-02-12T18:37:09;496.55;;;297.85;;
39486;SDS011;25173;50.430;18.926;2023-02-12T18:40:11;492.70;;;301.33;;
39486;SDS011;25173;50.430;18.926;2023-02-12T18:43:12;495.25;;;301.55;;
39486;SDS011;25173;50.430;18.926;2023-02-12T18:49:15;560.78;;;334.52;;
39486;SDS011;25173;50.430;18.926;2023-02-12T18:52:15;574.63;;;346.48;;
39486;SDS011;25173;50.430;18.926;2023-02-12T18:55:16;536.25;;;304.25;;
39486;SDS011;25173;50.430;18.926;2023-02-12T18:58:17;524.40;;;308.45;;
39486;SDS011;25173;50.430;18.926;2023-02-12T19:01:18;500.98;;;293.42;;
39486;SDS011;25173;50.430;18.926;2023-02-12T19:04:19;502.08;;;298.08;;
39486;SDS011;25173;50.430;18.926;2023-02-12T19:07:22;487.42;;;295.52;;
39486;SDS011;25173;50.430;18.926;2023-02-12T19:10:23;516.95;;;311.75;;
39486;SDS011;25173;50.430;18.926;2023-02-12T19:13:24;533.65;;;315.90;;
39486;SDS011;25173;50.430;18.926;2023-02-12T19:16:24;533.67;;;328.05;;
39486;SDS011;25173;50.430;18.926;2023-02-12T19:19:26;525.35;;;315.73;;
39486;SDS011;25173;50.430;18.926;2023-02-12T19:22:26;497.05;;;309.83;;
39486;SDS011;25173;50.430;18.926;2023-02-12T19:25:28;529.05;;;311.60;;
39486;SDS011;25173;50.430;18.926;2023-02-12T19:28:28;538.65;;;326.38;;
39486;SDS011;25173;50.430;18.926;2023-02-12T19:31:33;536.75;;;324.55;;
39486;SDS011;25173;50.430;18.926;2023-02-12T19:34:36;520.30;;;307.60;;
39486;SDS011;25173;50.430;18.926;2023-02-12T19:37:37;556.70;;;346.17;;
39486;SDS011;25173;50.430;18.926;2023-02-12T19:40:38;508.08;;;310.92;;
39486;SDS011;25173;50.430;18.926;2023-02-12T19:43:38;539.65;;;328.30;;
39486;SDS011;25173;50.430;18.926;2023-02-12T19:46:40;538.40;;;327.40;;
39486;SDS011;25173;50.430;18.926;2023-02-12T19:49:42;597.28;;;365.40;;
39486;SDS011;25173;50.430;18.926;2023-02-12T19:52:44;697.22;;;420.23;;
39486;SDS011;25173;50.430;18.926;2023-02-12T19:55:45;727.10;;;443.48;;
39486;SDS011;25173;50.430;18.926;2023-02-12T19:58:54;678.00;;;405.35;;